Aérodrome :
LOGIN :

S'inscrire | Disclaimer

   EN    FR    IT 

 










Légende :    VFR   VFR Marginal   IFR   IFR Intensif   IFR Très Intensif
Visi : 
Plafond : 
>= 8 km
>= 3000ft
5 à 8 km
1000 à 3000 ft
1500m à 5 km
500 à 1000 ft
800 à 1500m
200 à 500 ft
< 800m
< 200 ft
Symboles :   Orages  Brouillard  Fortes neiges  Fortes précipitations  Vent > 20 kt
SIGMETs :   Divers  Orages  Givrage  Turbulence  Onde Orograph.  Cendres Volcan.






- Altitude de l'aérodrome : 681 ft
- Code IATA : OSL


ENGM - Oslo Gardermoen

DERNIER METAR :
  • 162320Z 01010KT 9999 -RASN FEW014 BKN016 01/00 Q1004

METARs EXPIRÉS :
  • 162250Z 01010KT 9999 -RASN FEW008 OVC024 01/00 Q1005
  • 162220Z 01009KT 9999 8000SE -SN FEW006 SCT019 OVC027 01/00 Q1005
  • 162150Z 01010KT 7000 -SN SCT004 BKN021 01/00 Q1005 TEMPO 4000 -SNRA BKN008
  • 162120Z 01010KT 6000 -SN SCT003 OVC024 00/00 Q1005 TEMPO 4000 -SNRA OVC008
  • 162050Z 01011KT 3300 -SN SCT004 BKN013 00/00 Q1006 TEMPO 2000 -SNRA OVC008

TAF TAF ENGM
Valide du 16 à 18h jusqu'au 17 à 18h UTC


1618/1718 01008KT 8000 -SN SCT004 OVC020
TEMPO 1618/1702 1200 SN BR VV004
PROB30 1716/1718 0800 FZFG VV002



MET'MAP, la Météo Aéronautique d'un coup d'oeil ! - Copyright ORBIFLY Décembre 2007 - Disclaimer

ORBIFLY MET'MAP TEAM :

Programmation & Développement : Alexandra Zaïnal
Conception & Développement : Baudouin d'Aumeries
Co-Programmation & Développement : Marc-Olivier Méhu
Soutien technique & logistique : Manuel Goepfert

Contact : metmap@orbifly.com




SOURCES & CREDITS :

   NOAA